Time;durP1;ratioP1;P1;durP2;ratioP2;P2;SDS_P1;SDS_P2;PMS_P1;PMS_P2;Temp;Humidity;BMP_temperature;BMP_pressure;BME280_temperature;BME280_humidity;BME280_pressure;Samples;Min_cycle;Max_cycle;Signal;HPM_P1;HPM_P2
2021/04/08 00:00:44;;;;;;;20.93;10.63;;;;;;;-0.35;74.02;99428.13;115513;1199;102983;-81
2021/04/08 00:03:12;;;;;;;20.95;11.20;;;;;;;-0.36;73.53;99428.95;115671;1199;102999;-82
2021/04/08 00:05:40;;;;;;;18.90;9.70;;;;;;;-0.34;73.33;99432.39;115412;1198;103137;-81
2021/04/08 00:08:07;;;;;;;17.90;9.93;;;;;;;-0.35;73.30;99430.69;115415;1197;103028;-81
2021/04/08 00:10:34;;;;;;;16.55;9.65;;;;;;;-0.35;73.36;99440.94;115275;1199;103094;-81
2021/04/08 00:13:01;;;;;;;22.90;11.50;;;;;;;-0.37;73.89;99430.66;115471;1199;103008;-81
2021/04/08 00:15:29;;;;;;;16.50;9.37;;;;;;;-0.36;73.74;99434.95;115447;1199;103034;-81
2021/04/08 00:17:56;;;;;;;15.73;8.77;;;;;;;-0.37;73.57;99437.49;115394;1200;103012;-81
2021/04/08 00:20:23;;;;;;;17.83;10.10;;;;;;;-0.36;72.72;99434.08;115686;1199;103012;-81
2021/04/08 00:22:50;;;;;;;21.93;10.57;;;;;;;-0.36;73.05;99428.95;115421;1199;103293;-81
2021/04/08 00:25:18;;;;;;;20.23;9.30;;;;;;;-0.35;73.06;99430.69;115591;1199;103268;-81
2021/04/08 00:27:45;;;;;;;17.90;10.27;;;;;;;-0.35;73.36;99440.94;115500;1199;103181;-81
2021/04/08 00:30:14;;;;;;;18.83;10.30;;;;;;;-0.36;72.65;99439.20;115430;1200;103862;-81
2021/04/08 00:32:41;;;;;;;21.73;10.93;;;;;;;-0.37;73.68;99446.03;115453;1199;103559;-81
2021/04/08 00:35:11;;;;;;;18.90;10.17;;;;;;;-0.38;73.20;99440.91;115648;1198;103118;-81
2021/04/08 00:37:38;;;;;;;18.70;10.35;;;;;;;-0.36;73.18;99439.20;115419;1199;102983;-81
2021/04/08 00:40:11;;;;;;;20.20;9.87;;;;;;;-0.33;73.47;99446.91;115385;1199;102986;-81
2021/04/08 00:42:39;;;;;;;17.70;9.73;;;;;;;-0.31;72.77;99447.75;115397;1198;102988;-82
2021/04/08 00:45:07;;;;;;;21.57;11.43;;;;;;;-0.30;73.30;99452.02;115416;1199;103060;-81
2021/04/08 00:47:34;;;;;;;23.07;11.90;;;;;;;-0.31;73.20;99440.92;115364;1199;103043;-82
2021/04/08 00:50:04;;;;;;;20.33;10.60;;;;;;;-0.29;73.57;99443.48;115392;1200;103168;-81
2021/04/08 00:52:32;;;;;;;21.17;10.37;;;;;;;-0.24;72.79;99451.15;115504;1197;101226;-81
2021/04/08 00:54:59;;;;;;;19.30;10.57;;;;;;;-0.22;73.01;99452.00;115455;1199;102970;-81
2021/04/08 00:57:27;;;;;;;21.50;10.63;;;;;;;-0.20;73.03;99448.58;115682;1199;103140;-81
2021/04/08 00:59:55;;;;;;;18.80;10.03;;;;;;;-0.16;72.93;99452.86;115423;1199;103070;-81
2021/04/08 01:02:23;;;;;;;16.27;9.93;;;;;;;-0.14;72.72;99435.77;115438;1199;103191;-81
2021/04/08 01:04:50;;;;;;;18.93;10.20;;;;;;;-0.10;72.34;99457.97;115396;1199;103037;-81
2021/04/08 01:07:17;;;;;;;22.38;10.63;;;;;;;-0.10;72.74;99445.16;115411;1199;103002;-82
2021/04/08 01:09:44;;;;;;;22.60;11.55;;;;;;;-0.07;72.54;99449.41;115352;1200;103030;-81
2021/04/08 01:12:11;;;;;;;22.80;12.03;;;;;;;-0.04;72.54;99447.69;115439;1198;103030;-81
2021/04/08 01:14:39;;;;;;;19.70;10.97;;;;;;;0.01;72.15;99451.98;115670;1199;101698;-81
2021/04/08 01:17:16;;;;;;;18.83;10.53;;;;;;;0.03;72.50;99448.55;115399;1197;103094;-81
2021/04/08 01:20:19;;;;;;;20.77;11.23;;;;;;;0.06;72.43;99442.55;115355;1199;102992;-81
2021/04/08 01:23:11;;;;;;;21.57;10.80;;;;;;;0.11;72.05;99443.39;115623;1199;103092;-81
2021/04/08 01:25:57;;;;;;;19.27;10.87;;;;;;;0.17;71.96;99451.05;115648;1199;103060;-81
2021/04/08 01:28:32;;;;;;;19.77;10.03;;;;;;;0.21;72.56;99447.64;115592;1199;102948;-81
2021/04/08 01:31:03;;;;;;;18.87;10.13;;;;;;;0.23;72.30;99457.03;115460;1198;103150;-81
2021/04/08 01:33:52;;;;;;;20.63;10.63;;;;;;;0.27;72.22;99457.88;115422;1199;102986;-82
2021/04/08 01:36:23;;;;;;;17.93;10.17;;;;;;;0.27;71.68;99460.44;115395;1199;102983;-82
2021/04/08 01:38:58;;;;;;;20.10;10.87;;;;;;;0.28;71.72;99460.43;115382;1200;103309;-81
2021/04/08 01:41:26;;;;;;;21.37;11.43;;;;;;;0.28;71.70;99455.30;115439;1199;103162;-82
2021/04/08 01:43:57;;;;;;;21.93;11.60;;;;;;;0.32;71.90;99460.41;115424;1198;103065;-82
2021/04/08 01:46:27;;;;;;;20.83;11.57;;;;;;;0.34;71.79;99446.72;115431;1198;102901;-82
2021/04/08 01:48:59;;;;;;;22.83;11.80;;;;;;;0.37;71.19;99463.84;115403;1200;103095;-81
2021/04/08 01:51:28;;;;;;;21.47;11.87;;;;;;;0.39;71.75;99454.42;115441;1198;103095;-81
2021/04/08 01:54:02;;;;;;;19.60;12.47;;;;;;;0.42;71.66;99451.84;115635;1199;103168;-81
2021/04/08 01:56:33;;;;;;;18.90;10.20;;;;;;;0.45;71.28;99451.83;115444;1198;103079;-81
2021/04/08 01:59:02;;;;;;;21.13;11.83;;;;;;;0.45;71.41;99457.80;115515;1199;104282;-81
2021/04/08 02:01:29;;;;;;;20.30;10.97;;;;;;;0.46;70.91;99454.38;115413;1199;102992;-81
2021/04/08 02:03:57;;;;;;;20.70;11.43;;;;;;;0.46;71.58;99454.38;115423;1199;103872;-81
2021/04/08 02:06:28;;;;;;;21.37;11.17;;;;;;;0.43;70.66;99459.53;115388;1200;103043;-81
2021/04/08 02:08:56;;;;;;;19.50;11.03;;;;;;;0.43;71.46;99454.39;115427;1198;102942;-81
2021/04/08 02:11:26;;;;;;;20.30;11.35;;;;;;;0.43;71.44;99463.80;115539;1198;103027;-81
2021/04/08 02:13:55;;;;;;;19.40;11.40;;;;;;;0.42;71.44;99452.69;115460;1200;103092;-81
2021/04/08 02:16:22;;;;;;;19.13;11.43;;;;;;;0.42;71.48;99450.13;115474;1199;103054;-81
2021/04/08 02:18:52;;;;;;;19.40;11.47;;;;;;;0.41;71.14;99450.98;115287;1199;103216;-82
2021/04/08 02:21:22;;;;;;;18.93;10.93;;;;;;;0.42;70.93;99464.66;115351;1198;103047;-81
2021/04/08 02:23:51;;;;;;;18.97;11.27;;;;;;;0.40;71.16;99456.98;115413;1198;103139;-81
2021/04/08 02:26:20;;;;;;;22.23;11.50;;;;;;;0.43;71.43;99463.80;115469;1198;102983;-81
2021/04/08 02:28:48;;;;;;;19.07;10.80;;;;;;;0.45;70.82;99462.94;115486;1197;102957;-81
2021/04/08 02:31:19;;;;;;;22.70;12.13;;;;;;;0.45;70.69;99478.33;115384;1199;102864;-81
2021/04/08 02:33:46;;;;;;;21.73;12.13;;;;;;;0.44;70.75;99466.36;115377;1199;102986;-81
2021/04/08 02:36:14;;;;;;;18.65;11.40;;;;;;;0.45;71.32;99462.08;115687;1197;102804;-81
2021/04/08 02:38:41;;;;;;;20.33;12.27;;;;;;;0.47;70.69;99456.08;115474;1199;103021;-81
2021/04/08 02:41:09;;;;;;;22.93;12.57;;;;;;;0.50;71.38;99468.89;115296;1200;103088;-83
2021/04/08 02:43:37;;;;;;;21.10;12.10;;;;;;;0.52;70.95;99469.73;115392;1199;102902;-81
2021/04/08 02:46:06;;;;;;;19.50;11.40;;;;;;;0.54;70.76;99475.74;115327;1200;103081;-82
2021/04/08 02:48:34;;;;;;;21.10;12.80;;;;;;;0.57;70.79;99467.17;115553;1198;103037;-82
2021/04/08 02:51:08;;;;;;;21.10;12.43;;;;;;;0.60;70.98;99475.70;115390;1199;103123;-83
2021/04/08 02:54:03;;;;;;;22.17;13.43;;;;;;;0.63;70.93;99477.40;115450;1199;103072;-82
2021/04/08 02:56:43;;;;;;;21.27;13.40;;;;;;;0.67;70.90;99478.23;115552;1199;103998;-82
2021/04/08 02:59:20;;;;;;;19.83;12.47;;;;;;;0.68;70.58;99475.66;115543;1198;103094;-82
2021/04/08 03:01:55;;;;;;;21.53;13.30;;;;;;;0.67;70.63;99476.52;115385;1199;102976;-82
2021/04/08 03:04:24;;;;;;;19.00;12.80;;;;;;;0.67;70.38;99471.39;115404;1199;103131;-82
2021/04/08 03:06:53;;;;;;;22.67;12.77;;;;;;;0.67;70.58;99473.10;115425;1200;102205;-82
2021/04/08 03:09:40;;;;;;;20.70;13.43;;;;;;;0.67;70.71;99473.10;115389;1197;102921;-82
2021/04/08 03:12:10;;;;;;;21.93;12.65;;;;;;;0.65;70.86;99472.26;115702;1199;103456;-81
2021/04/08 03:14:42;;;;;;;22.77;13.27;;;;;;;0.63;70.85;99467.14;115424;1198;103097;-83
2021/04/08 03:17:14;;;;;;;21.97;12.83;;;;;;;0.61;70.35;99479.13;115392;1198;103028;-83
2021/04/08 03:19:43;;;;;;;22.37;13.43;;;;;;;0.59;70.66;99474.00;115477;1197;103609;-82
2021/04/08 03:22:12;;;;;;;17.93;11.37;;;;;;;0.58;71.03;99477.43;115386;1199;103128;-83
2021/04/08 03:24:42;;;;;;;23.63;13.57;;;;;;;0.57;70.35;99487.70;115378;1199;103105;-82
2021/04/08 03:27:10;;;;;;;21.13;13.37;;;;;;;0.55;71.07;99485.14;115674;1199;103115;-81
2021/04/08 03:29:42;;;;;;;23.60;14.17;;;;;;;0.55;70.81;99487.71;115428;1197;102989;-82
2021/04/08 03:32:10;;;;;;;20.30;11.13;;;;;;;0.52;70.43;99487.70;115592;1199;103226;-81
2021/04/08 03:34:39;;;;;;;21.77;12.30;;;;;;;0.48;71.35;99486.01;115620;1199;103016;-81
2021/04/08 03:37:07;;;;;;;22.27;13.63;;;;;;;0.48;70.94;99493.70;115477;1200;102982;-81
2021/04/08 03:39:36;;;;;;;19.50;12.45;;;;;;;0.48;70.88;99495.42;115478;1198;103137;-82
2021/04/08 03:42:04;;;;;;;21.27;13.33;;;;;;;0.45;70.75;99493.72;115628;1199;101469;-82
2021/04/08 03:44:32;;;;;;;21.57;14.53;;;;;;;0.46;71.27;99489.44;115395;1199;103387;-83
2021/04/08 03:47:02;;;;;;;23.20;14.30;;;;;;;0.47;71.31;99501.41;115359;1197;103056;-83
2021/04/08 03:49:30;;;;;;;24.83;15.13;;;;;;;0.47;71.19;99497.13;115552;1199;103031;-81
2021/04/08 03:51:59;;;;;;;26.53;14.57;;;;;;;0.48;71.21;99491.14;115687;1200;102433;-82
2021/04/08 03:54:28;;;;;;;21.43;13.33;;;;;;;0.50;70.64;99494.55;115616;1199;102993;-82
2021/04/08 03:56:58;;;;;;;20.83;13.57;;;;;;;0.54;70.66;99503.11;115426;1199;103098;-82
2021/04/08 03:59:26;;;;;;;27.93;16.87;;;;;;;0.51;71.26;99503.95;115406;1199;103059;-82
2021/04/08 04:01:53;;;;;;;23.90;15.30;;;;;;;0.51;70.93;99503.95;115450;1199;105472;-82
2021/04/08 04:04:23;;;;;;;22.17;14.47;;;;;;;0.52;70.68;99505.66;115716;1200;103245;-83
2021/04/08 04:06:53;;;;;;;25.47;15.83;;;;;;;0.53;71.32;99497.09;115663;1200;103037;-82
2021/04/08 04:09:21;;;;;;;23.83;14.97;;;;;;;0.59;71.38;99503.94;115462;1199;103612;-83
2021/04/08 04:11:50;;;;;;;23.07;14.73;;;;;;;0.61;71.37;99504.78;115383;1199;103114;-83
2021/04/08 04:14:23;;;;;;;27.17;16.67;;;;;;;0.66;71.37;99508.17;115431;1200;102941;-83
2021/04/08 04:16:52;;;;;;;26.70;15.37;;;;;;;0.67;70.68;99514.16;115429;1200;103050;-83
2021/04/08 04:19:19;;;;;;;20.27;13.27;;;;;;;0.68;71.17;99513.30;115485;1198;103089;-83
2021/04/08 04:21:46;;;;;;;31.37;15.63;;;;;;;0.69;70.61;99497.89;115417;1199;104329;-83
2021/04/08 04:24:15;;;;;;;26.50;15.20;;;;;;;0.77;71.32;99508.14;115420;1199;103062;-82
2021/04/08 04:26:42;;;;;;;21.67;13.53;;;;;;;0.81;71.49;99507.27;115433;1199;102996;-83
2021/04/08 04:29:11;;;;;;;24.57;14.43;;;;;;;0.80;70.89;99513.27;115373;1200;103191;-83
2021/04/08 04:31:39;;;;;;;20.67;12.30;;;;;;;0.80;71.28;99515.83;115420;1199;102986;-83
2021/04/08 04:34:07;;;;;;;21.00;13.53;;;;;;;0.80;70.85;99513.27;115346;1199;103047;-83
2021/04/08 04:36:34;;;;;;;21.17;13.73;;;;;;;0.80;70.63;99520.96;115458;1199;103321;-82
2021/04/08 04:39:04;;;;;;;26.25;15.10;;;;;;;0.83;71.34;99520.94;115458;1198;103076;-83
2021/04/08 04:41:31;;;;;;;22.63;14.27;;;;;;;0.87;71.45;99527.77;115399;1198;102849;-83
2021/04/08 04:43:58;;;;;;;21.83;14.40;;;;;;;0.87;71.22;99518.34;115373;1199;103038;-83
2021/04/08 04:46:25;;;;;;;23.87;14.97;;;;;;;0.92;71.36;99526.05;115403;1199;103069;-83
2021/04/08 04:48:52;;;;;;;21.50;14.80;;;;;;;0.95;70.82;99536.30;115590;1198;102983;-83
2021/04/08 04:51:20;;;;;;;23.20;14.53;;;;;;;0.95;70.72;99520.89;115660;1198;103082;-83
2021/04/08 04:53:47;;;;;;;24.95;15.38;;;;;;;0.99;71.27;99525.14;115566;1199;103008;-83
2021/04/08 04:56:14;;;;;;;20.40;13.75;;;;;;;1.00;71.24;99528.56;115438;1199;103049;-83
2021/04/08 04:58:41;;;;;;;22.20;15.65;;;;;;;1.01;71.20;99531.13;115430;1199;102995;-83
2021/04/08 05:01:09;;;;;;;24.43;16.48;;;;;;;1.03;71.52;99526.83;115669;1199;103452;-83
2021/04/08 05:03:38;;;;;;;22.13;15.67;;;;;;;1.05;70.93;99530.23;115594;1199;103095;-83
2021/04/08 05:06:06;;;;;;;22.60;14.93;;;;;;;1.09;71.10;99536.23;115456;1199;102980;-83
2021/04/08 05:08:33;;;;;;;23.97;15.37;;;;;;;1.12;71.55;99533.65;115380;1199;103073;-83
2021/04/08 05:11:02;;;;;;;21.07;14.43;;;;;;;1.15;71.08;99534.48;115367;1200;102358;-83
2021/04/08 05:13:29;;;;;;;21.90;14.60;;;;;;;1.16;71.02;99538.75;115439;1198;103072;-83
2021/04/08 05:15:57;;;;;;;21.13;14.70;;;;;;;1.20;71.19;99531.88;115354;1199;103606;-83
2021/04/08 05:18:24;;;;;;;22.80;15.07;;;;;;;1.20;71.32;99537.87;115382;1199;103076;-83
2021/04/08 05:20:51;;;;;;;24.03;15.80;;;;;;;1.21;70.88;99543.85;115366;1199;103057;-83
2021/04/08 05:23:18;;;;;;;24.97;15.77;;;;;;;1.21;71.33;99543.85;115343;1200;101192;-83
2021/04/08 05:25:46;;;;;;;25.80;15.45;;;;;;;1.23;71.08;99547.27;115652;1199;102951;-83
2021/04/08 05:28:13;;;;;;;23.73;15.77;;;;;;;1.26;71.45;99556.66;115565;1199;103127;-82
2021/04/08 05:30:40;;;;;;;27.83;16.80;;;;;;;1.28;71.20;99549.83;115385;1198;103447;-83
2021/04/08 05:33:08;;;;;;;27.60;16.67;;;;;;;1.26;71.35;99552.41;115435;1199;103065;-83
2021/04/08 05:35:35;;;;;;;26.67;17.97;;;;;;;1.27;71.68;99558.41;115304;1198;103152;-83
2021/04/08 05:38:03;;;;;;;24.13;16.17;;;;;;;1.29;71.25;99560.09;115440;1199;103005;-83
2021/04/08 05:40:30;;;;;;;25.25;16.80;;;;;;;1.29;71.22;99565.23;115330;1200;103114;-83
2021/04/08 05:42:57;;;;;;;26.30;17.63;;;;;;;1.31;71.81;99566.08;115387;1199;103149;-83
2021/04/08 05:45:27;;;;;;;23.98;16.88;;;;;;;1.34;71.90;99571.19;115519;1199;103255;-83
2021/04/08 05:47:54;;;;;;;21.83;15.90;;;;;;;1.34;72.10;99570.34;115605;1199;103089;-83
2021/04/08 05:50:21;;;;;;;24.97;15.83;;;;;;;1.33;73.22;99578.91;115463;1199;103233;-83
2021/04/08 05:52:49;;;;;;;27.70;18.30;;;;;;;1.34;72.50;99585.75;115583;1198;103031;-82
2021/04/08 05:55:16;;;;;;;30.43;18.33;;;;;;;1.32;72.81;99584.91;115434;1199;103087;-83
2021/04/08 05:57:44;;;;;;;25.65;17.45;;;;;;;1.33;72.52;99584.05;115427;1199;103034;-82
2021/04/08 06:00:12;;;;;;;24.57;17.63;;;;;;;1.35;73.44;99590.03;115531;1198;103063;-82
2021/04/08 06:02:40;;;;;;;24.97;17.60;;;;;;;1.33;72.95;99584.05;115445;1199;103165;-82
2021/04/08 06:05:09;;;;;;;24.05;17.65;;;;;;;1.30;73.51;99584.06;115596;1199;103047;-82
2021/04/08 06:07:36;;;;;;;24.37;17.80;;;;;;;1.26;73.50;99598.65;115413;1199;103065;-82
2021/04/08 06:10:04;;;;;;;23.93;17.27;;;;;;;1.31;73.68;99596.05;115427;1197;103030;-81
2021/04/08 06:12:31;;;;;;;22.73;16.30;;;;;;;1.33;73.44;99594.32;115367;1199;103024;-81
2021/04/08 06:14:58;;;;;;;25.37;17.67;;;;;;;1.33;73.91;99605.45;115362;1198;103158;-81
2021/04/08 06:17:26;;;;;;;22.83;16.77;;;;;;;1.33;73.63;99599.46;115437;1199;103124;-81
2021/04/08 06:19:53;;;;;;;28.50;18.70;;;;;;;1.35;73.89;99605.44;115430;1199;103082;-81
2021/04/08 06:22:21;;;;;;;25.40;17.27;;;;;;;1.36;74.45;99604.58;115391;1199;103156;-82
2021/04/08 06:24:48;;;;;;;23.30;16.63;;;;;;;1.37;74.22;99601.14;115381;1198;103028;-81
2021/04/08 06:27:15;;;;;;;25.87;18.00;;;;;;;1.36;74.14;99614.85;115682;1198;103003;-81
2021/04/08 06:29:42;;;;;;;26.70;18.80;;;;;;;1.36;74.05;99610.56;115385;1199;103075;-82
2021/04/08 06:32:09;;;;;;;25.40;18.45;;;;;;;1.40;74.15;99621.67;115617;1199;103078;-81
2021/04/08 06:34:37;;;;;;;30.10;20.83;;;;;;;1.42;74.13;99620.80;115602;1198;103046;-81
2021/04/08 06:37:04;;;;;;;34.60;22.10;;;;;;;1.42;74.52;99625.09;115405;1199;103015;-81
2021/04/08 06:39:34;;;;;;;27.30;18.78;;;;;;;1.43;74.52;99626.80;115455;1200;101904;-85
2021/04/08 06:42:02;;;;;;;26.70;19.60;;;;;;;1.42;74.08;99625.09;115448;1197;102989;-82
2021/04/08 06:44:31;;;;;;;28.90;19.90;;;;;;;1.42;74.72;99619.95;115664;1199;103060;-82
2021/04/08 06:47:04;;;;;;;29.90;20.70;;;;;;;1.41;74.59;99636.23;115404;1199;103037;-81
2021/04/08 06:49:43;;;;;;;27.93;19.70;;;;;;;1.43;74.94;99647.35;115493;1198;103120;-82
2021/04/08 06:52:11;;;;;;;28.30;20.77;;;;;;;1.46;75.01;99639.66;115455;1200;103006;-82
2021/04/08 06:54:38;;;;;;;31.77;22.60;;;;;;;1.50;74.82;99641.34;115416;1200;101559;-82
2021/04/08 06:57:06;;;;;;;29.77;22.37;;;;;;;1.52;75.08;99647.32;115374;1198;102852;-82
2021/04/08 06:59:34;;;;;;;30.33;22.13;;;;;;;1.59;75.39;99642.98;115353;1198;103063;-82
2021/04/08 07:02:02;;;;;;;28.43;20.63;;;;;;;1.62;75.19;99651.56;115368;1198;102980;-81
2021/04/08 07:04:30;;;;;;;29.13;21.60;;;;;;;1.66;75.00;99660.11;115383;1198;102992;-83
2021/04/08 07:06:58;;;;;;;31.97;21.90;;;;;;;1.70;74.84;99660.07;115357;1198;103041;-83
2021/04/08 07:09:25;;;;;;;31.03;21.27;;;;;;;1.74;75.21;99656.61;115468;1199;103255;-83
2021/04/08 07:11:52;;;;;;;31.23;22.97;;;;;;;1.78;74.93;99676.30;115431;1199;103022;-82
2021/04/08 07:14:20;;;;;;;27.50;20.80;;;;;;;1.83;75.30;99665.16;115361;1199;103060;-82
2021/04/08 07:16:47;;;;;;;31.10;22.90;;;;;;;1.89;75.31;99676.24;115417;1199;103484;-82
2021/04/08 07:19:15;;;;;;;24.77;20.20;;;;;;;1.93;75.25;99677.07;115431;1199;103121;-82
2021/04/08 07:21:42;;;;;;;26.30;20.30;;;;;;;2.01;74.84;99683.89;115459;1200;102992;-82
2021/04/08 07:24:11;;;;;;;28.25;22.35;;;;;;;2.08;75.24;99685.55;115436;1199;103000;-82
2021/04/08 07:26:57;;;;;;;28.63;21.97;;;;;;;2.18;74.90;99696.64;115472;1198;103306;-82
2021/04/08 07:29:49;;;;;;;28.27;20.67;;;;;;;2.28;74.79;99698.27;115451;1199;103114;-82
2021/04/08 07:32:20;;;;;;;29.37;21.43;;;;;;;2.35;74.55;99697.38;115537;1199;102992;-82
2021/04/08 07:34:50;;;;;;;30.73;22.17;;;;;;;2.45;74.90;99699.86;115517;1199;103226;-82
2021/04/08 07:37:33;;;;;;;29.35;22.15;;;;;;;2.54;74.86;99705.80;115621;1200;103008;-82
2021/04/08 07:40:16;;;;;;;32.23;22.57;;;;;;;2.69;74.44;99708.25;115427;1199;103440;-83
2021/04/08 07:42:44;;;;;;;29.57;21.47;;;;;;;2.84;74.39;99719.25;115418;1200;103034;-82
2021/04/08 07:45:22;;;;;;;25.40;20.30;;;;;;;2.93;73.93;99704.58;115657;1198;103149;-82
2021/04/08 07:48:00;;;;;;;25.30;19.57;;;;;;;3.07;74.43;99701.02;115624;1199;103073;-82
2021/04/08 07:50:30;;;;;;;27.00;20.87;;;;;;;3.29;74.03;99712.79;115640;1199;102982;-82
2021/04/08 07:52:58;;;;;;;26.70;20.53;;;;;;;3.44;73.71;99720.36;115435;1199;103143;-82
2021/04/08 07:55:28;;;;;;;26.17;19.73;;;;;;;3.62;73.55;99712.39;115474;1198;103143;-82
2021/04/08 07:58:06;;;;;;;26.80;20.70;;;;;;;3.85;73.31;99713.81;115630;1200;103021;-83
2021/04/08 08:00:37;;;;;;;24.83;20.17;;;;;;;4.31;72.93;99721.77;115399;1198;103242;-82
2021/04/08 08:03:23;;;;;;;24.93;19.30;;;;;;;4.70;72.01;99722.02;115418;1199;103053;-83
2021/04/08 08:05:59;;;;;;;22.80;17.27;;;;;;;4.98;71.31;99717.20;115575;1200;103079;-83
2021/04/08 08:08:41;;;;;;;22.10;17.85;;;;;;;5.15;70.42;99721.19;115471;1199;103475;-83
2021/04/08 08:11:13;;;;;;;23.50;19.20;;;;;;;5.19;70.24;99729.73;115735;1199;102976;-83
2021/04/08 08:13:55;;;;;;;20.23;16.70;;;;;;;5.23;69.96;99733.98;115382;1199;103024;-83
2021/04/08 08:16:28;;;;;;;23.47;17.83;;;;;;;5.23;69.61;99746.91;115444;1197;103196;-83
2021/04/08 08:18:57;;;;;;;18.87;16.53;;;;;;;5.12;69.12;99741.92;115423;1199;103459;-83
2021/04/08 08:21:35;;;;;;;19.73;14.80;;;;;;;4.99;69.29;99762.84;115433;1199;103184;-83
2021/04/08 08:24:08;;;;;;;13.35;11.45;;;;;;;4.83;69.27;99751.91;115456;1200;103460;-83
2021/04/08 08:26:45;;;;;;;12.00;10.70;;;;;;;4.66;69.12;99766.83;115455;1200;103008;-83
2021/04/08 08:29:18;;;;;;;13.70;10.70;;;;;;;4.47;69.60;99771.42;115369;1198;103433;-83
2021/04/08 08:31:50;;;;;;;14.40;10.70;;;;;;;4.39;69.89;99762.95;115454;1199;102137;-83
2021/04/08 08:34:34;;;;;;;13.67;11.57;;;;;;;4.22;69.67;99782.11;115651;1197;103133;-83
2021/04/08 08:37:03;;;;;;;16.67;13.03;;;;;;;4.01;69.97;99784.13;115408;1199;103053;-82
2021/04/08 08:39:33;;;;;;;16.93;12.80;;;;;;;3.81;70.13;99792.98;115396;1199;103169;-82
2021/04/08 08:42:03;;;;;;;17.47;13.57;;;;;;;3.69;70.39;99799.99;115463;1198;103060;-83
2021/04/08 08:44:31;;;;;;;16.93;13.40;;;;;;;3.55;70.71;99803.57;115440;1199;103117;-82
2021/04/08 08:47:07;;;;;;;17.15;13.80;;;;;;;3.46;71.31;99802.83;115371;1199;101917;-82
2021/04/08 08:49:46;;;;;;;19.10;14.50;;;;;;;3.42;71.63;99802.02;115366;1199;103009;-82
2021/04/08 08:52:29;;;;;;;17.80;14.45;;;;;;;3.52;72.03;99813.06;115327;1200;103128;-83
2021/04/08 08:54:56;;;;;;;20.35;14.85;;;;;;;3.69;72.35;99813.74;115442;1200;103139;-82
2021/04/08 08:57:26;;;;;;;21.70;15.60;;;;;;;3.95;72.21;99810.88;115653;1199;103178;-82
2021/04/08 08:59:55;;;;;;;19.97;14.97;;;;;;;4.44;72.38;99818.80;115432;1199;102993;-82
2021/04/08 09:02:22;;;;;;;20.63;14.17;;;;;;;5.11;71.98;99816.92;115495;1199;103108;-84
2021/04/08 09:04:52;;;;;;;17.93;13.97;;;;;;;6.10;71.86;99814.22;115575;1199;103040;-83
2021/04/08 09:07:21;;;;;;;16.03;12.63;;;;;;;7.57;70.08;99818.48;115422;1200;103085;-84
2021/04/08 09:09:54;;;;;;;14.15;12.30;;;;;;;9.04;68.45;99812.40;115486;1198;103610;-84
2021/04/08 09:12:24;;;;;;;14.07;11.60;;;;;;;10.53;66.23;99815.77;115565;1197;102954;-84
2021/04/08 09:14:51;;;;;;;12.43;10.53;;;;;;;11.45;63.72;99800.67;115439;1198;101868;-84
2021/04/08 09:17:44;;;;;;;12.70;10.30;;;;;;;11.62;60.89;99809.55;115642;1199;103416;-82
2021/04/08 09:20:21;;;;;;;10.77;9.70;;;;;;;11.28;59.14;99810.13;115504;1199;103016;-82
2021/04/08 09:23:06;;;;;;;11.10;9.90;;;;;;;10.71;57.93;99814.20;115466;1198;102883;-81
2021/04/08 09:25:51;;;;;;;10.30;8.80;;;;;;;10.09;58.71;99817.44;115353;1198;103184;-83
2021/04/08 09:28:19;;;;;;;9.83;8.00;;;;;;;9.49;58.45;99827.36;115431;1200;103166;-82
2021/04/08 09:31:20;;;;;;;7.47;6.67;;;;;;;8.82;58.64;99826.15;115371;1200;102909;-82
2021/04/08 09:33:41;;;;;;;8.50;7.37;;;;;;;8.13;59.87;99847.23;115573;1200;103009;-84
2021/04/08 09:36:18;;;;;;;8.90;7.10;;;;;;;7.62;59.97;99838.27;115660;1197;102807;-82
2021/04/08 09:38:45;;;;;;;8.75;7.28;;;;;;;7.10;60.75;99849.97;115575;1199;102999;-83
2021/04/08 09:41:12;;;;;;;8.40;6.60;;;;;;;6.71;61.76;99854.34;115495;1200;102915;-82
2021/04/08 09:43:40;;;;;;;8.63;7.00;;;;;;;6.49;62.97;99856.57;115403;1200;102976;-83
2021/04/08 09:46:10;;;;;;;9.63;7.63;;;;;;;6.32;63.55;99849.16;115433;1199;102857;-83
2021/04/08 09:48:50;;;;;;;8.70;7.20;;;;;;;6.22;63.90;99857.98;115367;1199;103127;-83
2021/04/08 09:51:30;;;;;;;9.47;7.67;;;;;;;6.21;64.58;99856.28;115330;1199;103105;-83
2021/04/08 09:54:00;;;;;;;10.95;8.15;;;;;;;6.63;65.19;99862.28;115374;1197;103005;-83
2021/04/08 09:56:57;;;;;;;8.93;6.77;;;;;;;6.91;64.56;99859.92;115462;1198;103041;-83
2021/04/08 09:59:27;;;;;;;7.20;5.93;;;;;;;7.45;63.97;99864.66;115372;1199;103139;-83
2021/04/08 10:01:54;;;;;;;6.07;5.47;;;;;;;7.97;63.76;99863.28;115510;1198;103182;-83
2021/04/08 10:04:26;;;;;;;6.10;5.10;;;;;;;8.45;62.60;99863.67;115694;1198;103085;-83
2021/04/08 10:07:06;;;;;;;6.43;5.50;;;;;;;8.55;61.82;99874.63;115505;1198;103050;-83
2021/04/08 10:09:33;;;;;;;8.33;4.90;;;;;;;8.45;61.99;99876.66;115397;1197;101947;-82
2021/04/08 10:12:00;;;;;;;5.67;4.37;;;;;;;8.25;60.94;99882.38;115344;1198;102995;-83
2021/04/08 10:14:30;;;;;;;6.55;4.40;;;;;;;7.91;60.42;99881.63;115450;1199;103005;-83
2021/04/08 10:17:06;;;;;;;4.87;4.20;;;;;;;7.46;60.71;99906.13;115481;1199;103082;-85
2021/04/08 10:19:41;;;;;;;5.53;4.03;;;;;;;7.06;61.09;99895.87;115479;1199;103505;-83
2021/04/08 10:22:10;;;;;;;5.45;4.60;;;;;;;6.76;61.43;99902.59;115420;1198;103031;-82
2021/04/08 10:24:44;;;;;;;6.17;5.17;;;;;;;6.42;62.27;99892.09;115436;1199;103086;-82
2021/04/08 10:27:21;;;;;;;7.67;4.90;;;;;;;6.25;62.96;99904.53;115504;1198;102983;-87
2021/04/08 10:29:49;;;;;;;6.88;5.13;;;;;;;6.22;63.40;99910.63;115475;1200;101050;-83
2021/04/08 10:32:42;;;;;;;6.95;5.50;;;;;;;6.26;63.80;99904.50;115380;1199;101048;-83
2021/04/08 10:35:27;;;;;;;7.35;4.90;;;;;;;6.19;63.69;99930.56;115363;1199;103066;-83
2021/04/08 10:38:05;;;;;;;6.90;5.40;;;;;;;6.03;64.37;99928.26;115625;1198;103008;-83
2021/04/08 10:40:34;;;;;;;7.47;5.70;;;;;;;5.88;64.67;99932.83;115397;1198;103012;-83
2021/04/08 10:43:16;;;;;;;8.33;6.40;;;;;;;5.73;65.40;99929.63;115323;1199;101310;-83
2021/04/08 10:45:59;;;;;;;7.23;5.97;;;;;;;5.62;65.48;99931.56;115379;1198;103203;-83
2021/04/08 10:48:27;;;;;;;9.43;6.50;;;;;;;5.67;65.93;99941.83;115558;1198;103149;-82
2021/04/08 10:50:55;;;;;;;9.80;7.10;;;;;;;5.78;66.13;99942.50;115386;1198;102983;-83
2021/04/08 10:53:27;;;;;;;9.57;7.90;;;;;;;5.91;66.19;99938.83;115491;1199;103011;-83
2021/04/08 10:55:55;;;;;;;10.93;7.53;;;;;;;6.06;65.84;99930.78;115621;1198;103089;-83
2021/04/08 10:58:26;;;;;;;10.10;7.60;;;;;;;6.46;66.19;99930.00;115551;1199;103034;-83
2021/04/08 11:00:55;;;;;;;9.73;6.97;;;;;;;6.93;65.88;99936.77;115572;1197;103104;-83
2021/04/08 11:03:24;;;;;;;10.53;7.20;;;;;;;7.30;65.38;99937.67;115623;1197;101986;-83
2021/04/08 11:05:51;;;;;;;10.43;6.67;;;;;;;7.64;64.71;99946.34;115446;1198;102852;-82
2021/04/08 11:08:26;;;;;;;9.20;6.50;;;;;;;7.96;64.30;99952.47;115500;1198;102989;-82
2021/04/08 11:10:53;;;;;;;7.10;5.35;;;;;;;8.32;62.90;99935.89;115397;1199;103002;-83
2021/04/08 11:13:34;;;;;;;8.45;6.10;;;;;;;8.40;60.94;99949.53;115367;1199;102986;-83
2021/04/08 11:16:02;;;;;;;9.13;5.93;;;;;;;8.34;60.61;99943.67;115520;1198;103140;-83
2021/04/08 11:18:29;;;;;;;9.90;5.87;;;;;;;8.39;60.78;99946.98;115480;1199;103382;-83
2021/04/08 11:20:59;;;;;;;8.87;6.03;;;;;;;8.39;60.58;99941.79;115475;1199;103062;-82
2021/04/08 11:23:28;;;;;;;6.75;5.40;;;;;;;8.46;60.76;99944.19;115484;1197;102213;-82
2021/04/08 11:26:07;;;;;;;7.33;5.20;;;;;;;8.71;60.63;99944.32;115402;1199;103258;-82
2021/04/08 11:28:42;;;;;;;8.07;5.10;;;;;;;9.15;60.10;99938.66;115548;1199;103500;-84